sensor_id;sensor_type;location;lat;lon;timestamp;pressure;altitude;pressure_sealevel;temperature;humidity
57442;BME280;43284;47.042;15.498;2022-07-19T00:01:02;97898.09;;;15.58;77.11
57442;BME280;43284;47.042;15.498;2022-07-19T00:03:29;97892.94;;;15.57;77.04
57442;BME280;43284;47.042;15.498;2022-07-19T00:05:56;97892.41;;;15.50;76.54
57442;BME280;43284;47.042;15.498;2022-07-19T00:08:23;97890.28;;;15.41;75.10
57442;BME280;43284;47.042;15.498;2022-07-19T00:10:50;97884.53;;;15.34;75.74
57442;BME280;43284;47.042;15.498;2022-07-19T00:13:17;97879.59;;;15.28;75.67
57442;BME280;43284;47.042;15.498;2022-07-19T00:15:44;97878.59;;;15.31;76.86
57442;BME280;43284;47.042;15.498;2022-07-19T00:18:11;97884.53;;;15.34;78.60
57442;BME280;43284;47.042;15.498;2022-07-19T00:20:38;97879.84;;;15.23;77.52
57442;BME280;43284;47.042;15.498;2022-07-19T00:23:06;97880.97;;;15.19;77.54
57442;BME280;43284;47.042;15.498;2022-07-19T00:25:33;97877.41;;;15.20;77.72
57442;BME280;43284;47.042;15.498;2022-07-19T00:28:00;97884.28;;;15.23;78.40
57442;BME280;43284;47.042;15.498;2022-07-19T00:30:28;97876.72;;;15.17;77.10
57442;BME280;43284;47.042;15.498;2022-07-19T00:32:55;97884.28;;;15.07;77.58
57442;BME280;43284;47.042;15.498;2022-07-19T00:35:23;97882.06;;;14.99;77.78
57442;BME280;43284;47.042;15.498;2022-07-19T00:37:50;97884.44;;;15.04;79.87
57442;BME280;43284;47.042;15.498;2022-07-19T00:40:24;97881.72;;;15.06;80.32
57442;BME280;43284;47.042;15.498;2022-07-19T00:42:51;97881.72;;;15.06;79.60
57442;BME280;43284;47.042;15.498;2022-07-19T00:45:19;97878.06;;;15.08;78.90
57442;BME280;43284;47.042;15.498;2022-07-19T00:47:46;97882.00;;;15.01;78.29
57442;BME280;43284;47.042;15.498;2022-07-19T00:50:13;97886.22;;;14.88;77.99
57442;BME280;43284;47.042;15.498;2022-07-19T00:52:41;97883.94;;;14.81;78.77
57442;BME280;43284;47.042;15.498;2022-07-19T00:55:10;97884.75;;;14.82;80.15
57442;BME280;43284;47.042;15.498;2022-07-19T00:57:38;97887.16;;;14.87;81.31
57442;BME280;43284;47.042;15.498;2022-07-19T01:00:07;97890.22;;;14.79;79.62
57442;BME280;43284;47.042;15.498;2022-07-19T01:02:36;97878.97;;;14.75;80.93
57442;BME280;43284;47.042;15.498;2022-07-19T01:05:04;97879.16;;;14.72;81.01
57442;BME280;43284;47.042;15.498;2022-07-19T01:07:33;97872.28;;;14.70;80.59
57442;BME280;43284;47.042;15.498;2022-07-19T01:10:05;97867.09;;;14.68;80.80
57442;BME280;43284;47.042;15.498;2022-07-19T01:12:33;97880.25;;;14.68;81.40
57442;BME280;43284;47.042;15.498;2022-07-19T01:15:01;97879.97;;;14.57;80.56
57442;BME280;43284;47.042;15.498;2022-07-19T01:17:29;97876.59;;;14.55;80.42
57442;BME280;43284;47.042;15.498;2022-07-19T01:19:56;97874.31;;;14.47;80.65
57442;BME280;43284;47.042;15.498;2022-07-19T01:22:23;97873.31;;;14.50;82.56
57442;BME280;43284;47.042;15.498;2022-07-19T01:24:51;97875.06;;;14.49;80.93
57442;BME280;43284;47.042;15.498;2022-07-19T01:27:18;97876.28;;;14.43;81.30
57442;BME280;43284;47.042;15.498;2022-07-19T01:29:46;97881.34;;;14.47;82.15
57442;BME280;43284;47.042;15.498;2022-07-19T01:32:13;97879.56;;;14.47;81.49
57442;BME280;43284;47.042;15.498;2022-07-19T01:34:41;97873.31;;;14.50;83.23
57442;BME280;43284;47.042;15.498;2022-07-19T01:37:08;97870.84;;;14.47;80.57
57442;BME280;43284;47.042;15.498;2022-07-19T01:39:36;97865.13;;;14.38;80.10
57442;BME280;43284;47.042;15.498;2022-07-19T01:42:03;97867.22;;;14.32;79.37
57442;BME280;43284;47.042;15.498;2022-07-19T01:44:31;97874.06;;;14.18;79.60
57442;BME280;43284;47.042;15.498;2022-07-19T01:46:57;97875.63;;;14.05;80.55
57442;BME280;43284;47.042;15.498;2022-07-19T01:49:26;97876.09;;;13.96;81.51
57442;BME280;43284;47.042;15.498;2022-07-19T01:51:53;97873.63;;;13.93;81.70
57442;BME280;43284;47.042;15.498;2022-07-19T01:54:21;97872.75;;;13.92;82.71
57442;BME280;43284;47.042;15.498;2022-07-19T01:56:48;97872.75;;;13.92;83.17
57442;BME280;43284;47.042;15.498;2022-07-19T01:59:16;97877.25;;;13.90;82.01
57442;BME280;43284;47.042;15.498;2022-07-19T02:01:44;97875.50;;;13.91;82.24
57442;BME280;43284;47.042;15.498;2022-07-19T02:04:11;97872.09;;;13.89;81.53
57442;BME280;43284;47.042;15.498;2022-07-19T02:06:39;97873.69;;;13.91;81.14
57442;BME280;43284;47.042;15.498;2022-07-19T02:09:06;97865.94;;;13.88;81.89
57442;BME280;43284;47.042;15.498;2022-07-19T02:11:33;97872.84;;;13.91;82.70
57442;BME280;43284;47.042;15.498;2022-07-19T02:14:06;97864.88;;;13.92;83.04
57442;BME280;43284;47.042;15.498;2022-07-19T02:16:39;97870.00;;;13.95;83.03
57442;BME280;43284;47.042;15.498;2022-07-19T02:19:07;97870.00;;;13.95;82.06
57442;BME280;43284;47.042;15.498;2022-07-19T02:21:35;97874.53;;;13.92;81.59
57442;BME280;43284;47.042;15.498;2022-07-19T02:24:04;97875.69;;;13.86;81.29
57442;BME280;43284;47.042;15.498;2022-07-19T02:26:34;97874.00;;;13.85;81.79
57442;BME280;43284;47.042;15.498;2022-07-19T02:29:05;97874.84;;;13.86;82.23
57442;BME280;43284;47.042;15.498;2022-07-19T02:31:35;97870.38;;;13.88;80.73
57442;BME280;43284;47.042;15.498;2022-07-19T02:34:02;97869.69;;;13.84;81.30
57442;BME280;43284;47.042;15.498;2022-07-19T02:36:33;97870.28;;;13.89;83.93
57442;BME280;43284;47.042;15.498;2022-07-19T02:39:04;97876.47;;;13.88;82.16
57442;BME280;43284;47.042;15.498;2022-07-19T02:41:31;97869.69;;;13.84;81.18
57442;BME280;43284;47.042;15.498;2022-07-19T02:43:58;97872.75;;;13.75;80.96
57442;BME280;43284;47.042;15.498;2022-07-19T02:46:25;97881.34;;;13.61;81.97
57442;BME280;43284;47.042;15.498;2022-07-19T02:48:52;97876.31;;;13.56;82.37
57442;BME280;43284;47.042;15.498;2022-07-19T02:51:24;97876.31;;;13.56;82.73
57442;BME280;43284;47.042;15.498;2022-07-19T02:53:52;97881.25;;;13.63;84.29
57442;BME280;43284;47.042;15.498;2022-07-19T02:56:18;97875.72;;;13.69;85.43
57442;BME280;43284;47.042;15.498;2022-07-19T02:58:45;97874.94;;;13.67;83.93
57442;BME280;43284;47.042;15.498;2022-07-19T03:01:13;97872.59;;;13.60;82.94
57442;BME280;43284;47.042;15.498;2022-07-19T03:03:40;97875.47;;;13.56;82.87
57442;BME280;43284;47.042;15.498;2022-07-19T03:06:13;97875.75;;;13.50;83.04
57442;BME280;43284;47.042;15.498;2022-07-19T03:08:40;97872.09;;;13.35;82.84
57442;BME280;43284;47.042;15.498;2022-07-19T03:11:08;97878.28;;;13.34;83.25
57442;BME280;43284;47.042;15.498;2022-07-19T03:13:36;97870.31;;;13.35;83.84
57442;BME280;43284;47.042;15.498;2022-07-19T03:16:03;97869.41;;;13.36;83.12
57442;BME280;43284;47.042;15.498;2022-07-19T03:18:30;97873.88;;;13.34;84.21
57442;BME280;43284;47.042;15.498;2022-07-19T03:20:58;97872.94;;;13.35;83.86
57442;BME280;43284;47.042;15.498;2022-07-19T03:23:27;97877.34;;;13.35;83.86
57442;BME280;43284;47.042;15.498;2022-07-19T03:25:54;97881.75;;;13.34;83.84
57442;BME280;43284;47.042;15.498;2022-07-19T03:28:21;97879.97;;;13.35;83.43
57442;BME280;43284;47.042;15.498;2022-07-19T03:30:50;97882.59;;;13.35;84.03
57442;BME280;43284;47.042;15.498;2022-07-19T03:33:17;97890.69;;;13.30;84.24
57442;BME280;43284;47.042;15.498;2022-07-19T03:35:44;97888.22;;;13.27;84.62
57442;BME280;43284;47.042;15.498;2022-07-19T03:38:13;97895.19;;;13.27;84.77
57442;BME280;43284;47.042;15.498;2022-07-19T03:40:42;97890.06;;;13.25;84.60
57442;BME280;43284;47.042;15.498;2022-07-19T03:43:09;97890.91;;;13.26;84.41
57442;BME280;43284;47.042;15.498;2022-07-19T03:45:37;97890.06;;;13.25;84.42
57442;BME280;43284;47.042;15.498;2022-07-19T03:48:04;97891.81;;;13.25;85.00
57442;BME280;43284;47.042;15.498;2022-07-19T03:50:31;97895.31;;;13.25;85.11
57442;BME280;43284;47.042;15.498;2022-07-19T03:52:58;97897.38;;;13.18;84.37
57442;BME280;43284;47.042;15.498;2022-07-19T03:55:26;97893.81;;;13.19;85.06
57442;BME280;43284;47.042;15.498;2022-07-19T03:57:53;97892.81;;;13.22;85.13
57442;BME280;43284;47.042;15.498;2022-07-19T04:00:20;97895.38;;;13.24;84.95
57442;BME280;43284;47.042;15.498;2022-07-19T04:02:47;97894.44;;;13.25;85.64
57442;BME280;43284;47.042;15.498;2022-07-19T04:05:15;97889.13;;;13.26;85.53
57442;BME280;43284;47.042;15.498;2022-07-19T04:07:43;97893.47;;;13.27;85.19
57442;BME280;43284;47.042;15.498;2022-07-19T04:10:11;97899.50;;;13.29;85.11
57442;BME280;43284;47.042;15.498;2022-07-19T04:12:38;97893.25;;;13.32;84.91
57442;BME280;43284;47.042;15.498;2022-07-19T04:15:10;97895.94;;;13.30;85.21
57442;BME280;43284;47.042;15.498;2022-07-19T04:17:38;97895.00;;;13.31;85.65
57442;BME280;43284;47.042;15.498;2022-07-19T04:20:06;97900.19;;;13.33;85.25
57442;BME280;43284;47.042;15.498;2022-07-19T04:22:34;97899.28;;;13.34;85.48
57442;BME280;43284;47.042;15.498;2022-07-19T04:25:03;97902.59;;;13.37;85.37
57442;BME280;43284;47.042;15.498;2022-07-19T04:27:31;97904.22;;;13.40;85.39
57442;BME280;43284;47.042;15.498;2022-07-19T04:30:04;97901.47;;;13.43;85.62
57442;BME280;43284;47.042;15.498;2022-07-19T04:32:35;97904.88;;;13.45;86.18
57442;BME280;43284;47.042;15.498;2022-07-19T04:35:14;97900.25;;;13.50;85.73
57442;BME280;43284;47.042;15.498;2022-07-19T04:37:43;97901.63;;;13.57;86.10
57442;BME280;43284;47.042;15.498;2022-07-19T04:40:12;97903.13;;;13.63;85.82
57442;BME280;43284;47.042;15.498;2022-07-19T04:42:39;97899.44;;;13.67;86.08
57442;BME280;43284;47.042;15.498;2022-07-19T04:45:09;97897.34;;;13.74;85.60
57442;BME280;43284;47.042;15.498;2022-07-19T04:47:36;97901.44;;;13.79;85.81
57442;BME280;43284;47.042;15.498;2022-07-19T04:50:04;97897.59;;;13.87;85.67
57442;BME280;43284;47.042;15.498;2022-07-19T04:52:31;97895.63;;;13.90;85.93
57442;BME280;43284;47.042;15.498;2022-07-19T04:54:58;97898.91;;;13.95;86.20
57442;BME280;43284;47.042;15.498;2022-07-19T04:57:25;97902.16;;;14.00;86.36
57442;BME280;43284;47.042;15.498;2022-07-19T04:59:53;97897.44;;;14.07;85.86
57442;BME280;43284;47.042;15.498;2022-07-19T05:02:24;97894.41;;;14.15;85.97
57442;BME280;43284;47.042;15.498;2022-07-19T05:04:52;97892.31;;;14.21;86.09
57442;BME280;43284;47.042;15.498;2022-07-19T05:07:20;97890.22;;;14.28;85.62
57442;BME280;43284;47.042;15.498;2022-07-19T05:09:48;97899.41;;;14.37;85.43
57442;BME280;43284;47.042;15.498;2022-07-19T05:12:16;97896.47;;;14.43;85.79
57442;BME280;43284;47.042;15.498;2022-07-19T05:14:43;97897.00;;;14.50;85.67
57442;BME280;43284;47.042;15.498;2022-07-19T05:17:11;97893.22;;;14.55;85.69
57442;BME280;43284;47.042;15.498;2022-07-19T05:19:39;97891.03;;;14.63;85.50
57442;BME280;43284;47.042;15.498;2022-07-19T05:22:07;97900.22;;;14.72;85.41
57442;BME280;43284;47.042;15.498;2022-07-19T05:24:34;97891.75;;;14.83;85.88
57442;BME280;43284;47.042;15.498;2022-07-19T05:27:02;97891.25;;;14.92;85.59
57442;BME280;43284;47.042;15.498;2022-07-19T05:29:34;97893.38;;;15.01;85.37
57442;BME280;43284;47.042;15.498;2022-07-19T05:32:02;97892.78;;;15.12;85.63
57442;BME280;43284;47.042;15.498;2022-07-19T05:34:30;97889.47;;;15.24;85.75
57442;BME280;43284;47.042;15.498;2022-07-19T05:36:58;97881.88;;;15.34;85.32
57442;BME280;43284;47.042;15.498;2022-07-19T05:39:25;97887.50;;;15.44;85.35
57442;BME280;43284;47.042;15.498;2022-07-19T05:41:53;97884.34;;;15.53;84.20
57442;BME280;43284;47.042;15.498;2022-07-19T05:44:22;97877.19;;;15.71;84.49
57442;BME280;43284;47.042;15.498;2022-07-19T05:46:50;97879.78;;;15.87;84.03
57442;BME280;43284;47.042;15.498;2022-07-19T05:49:18;97881.63;;;16.01;83.64
57442;BME280;43284;47.042;15.498;2022-07-19T05:51:46;97880.53;;;16.19;83.29
57442;BME280;43284;47.042;15.498;2022-07-19T05:54:13;97882.44;;;16.32;82.69
57442;BME280;43284;47.042;15.498;2022-07-19T05:56:41;97886.03;;;16.45;82.61
57442;BME280;43284;47.042;15.498;2022-07-19T05:59:09;97879.88;;;16.59;81.95
57442;BME280;43284;47.042;15.498;2022-07-19T06:01:36;97879.78;;;16.75;80.45
57442;BME280;43284;47.042;15.498;2022-07-19T06:04:04;97876.63;;;16.84;79.80
57442;BME280;43284;47.042;15.498;2022-07-19T06:06:36;97880.47;;;16.93;78.95
57442;BME280;43284;47.042;15.498;2022-07-19T06:09:05;97880.44;;;17.07;78.36
57442;BME280;43284;47.042;15.498;2022-07-19T06:11:35;97875.31;;;17.18;74.80
57442;BME280;43284;47.042;15.498;2022-07-19T06:14:07;97877.84;;;17.34;74.56
57442;BME280;43284;47.042;15.498;2022-07-19T06:16:42;97880.25;;;17.52;76.59
57442;BME280;43284;47.042;15.498;2022-07-19T06:19:10;97878.09;;;17.71;72.77
57442;BME280;43284;47.042;15.498;2022-07-19T06:21:38;97877.03;;;17.74;73.96
57442;BME280;43284;47.042;15.498;2022-07-19T06:24:06;97876.28;;;17.99;71.98
57442;BME280;43284;47.042;15.498;2022-07-19T06:26:33;97881.81;;;18.08;73.25
57442;BME280;43284;47.042;15.498;2022-07-19T06:29:00;97881.91;;;18.20;70.33
57442;BME280;43284;47.042;15.498;2022-07-19T06:31:27;97882.25;;;18.28;69.19
57442;BME280;43284;47.042;15.498;2022-07-19T06:33:54;97881.63;;;18.37;69.14
57442;BME280;43284;47.042;15.498;2022-07-19T06:36:22;97881.06;;;18.58;69.81
57442;BME280;43284;47.042;15.498;2022-07-19T06:38:49;97885.28;;;18.73;68.41
57442;BME280;43284;47.042;15.498;2022-07-19T06:41:17;97884.47;;;18.85;66.15
57442;BME280;43284;47.042;15.498;2022-07-19T06:43:44;97878.78;;;19.16;65.35
57442;BME280;43284;47.042;15.498;2022-07-19T06:46:12;97876.06;;;19.28;66.24
57442;BME280;43284;47.042;15.498;2022-07-19T06:48:40;97883.16;;;19.41;64.39
57442;BME280;43284;47.042;15.498;2022-07-19T06:51:08;97878.34;;;19.46;63.27
57442;BME280;43284;47.042;15.498;2022-07-19T06:53:36;97882.66;;;19.60;63.34
57442;BME280;43284;47.042;15.498;2022-07-19T06:56:04;97875.63;;;19.71;61.92
57442;BME280;43284;47.042;15.498;2022-07-19T06:58:31;97884.69;;;19.80;63.53
57442;BME280;43284;47.042;15.498;2022-07-19T07:00:59;97878.09;;;19.86;61.90
57442;BME280;43284;47.042;15.498;2022-07-19T07:03:27;97876.31;;;19.98;62.07
57442;BME280;43284;47.042;15.498;2022-07-19T07:05:54;97872.75;;;20.10;63.13
57442;BME280;43284;47.042;15.498;2022-07-19T07:08:21;97873.84;;;20.19;62.47
57442;BME280;43284;47.042;15.498;2022-07-19T07:10:50;97875.09;;;20.37;60.88
57442;BME280;43284;47.042;15.498;2022-07-19T07:13:17;97868.00;;;20.49;62.28
57442;BME280;43284;47.042;15.498;2022-07-19T07:15:44;97871.25;;;20.52;59.96
57442;BME280;43284;47.042;15.498;2022-07-19T07:18:12;97865.00;;;20.65;60.88
57442;BME280;43284;47.042;15.498;2022-07-19T07:20:40;97873.25;;;20.73;60.80
57442;BME280;43284;47.042;15.498;2022-07-19T07:23:09;97868.41;;;20.78;59.13
57442;BME280;43284;47.042;15.498;2022-07-19T07:25:37;97862.22;;;20.89;59.34
57442;BME280;43284;47.042;15.498;2022-07-19T07:28:05;97858.94;;;20.96;59.42
57442;BME280;43284;47.042;15.498;2022-07-19T07:30:33;97859.19;;;21.05;61.04
57442;BME280;43284;47.042;15.498;2022-07-19T07:33:01;97856.03;;;21.11;59.57
57442;BME280;43284;47.042;15.498;2022-07-19T07:35:28;97856.00;;;21.22;59.11
57442;BME280;43284;47.042;15.498;2022-07-19T07:37:56;97851.75;;;21.42;58.17
57442;BME280;43284;47.042;15.498;2022-07-19T07:40:23;97852.75;;;21.41;58.17
57442;BME280;43284;47.042;15.498;2022-07-19T07:42:50;97855.00;;;21.57;57.29
57442;BME280;43284;47.042;15.498;2022-07-19T07:45:18;97856.88;;;21.66;58.53
57442;BME280;43284;47.042;15.498;2022-07-19T07:47:45;97856.97;;;21.76;61.05
57442;BME280;43284;47.042;15.498;2022-07-19T07:50:12;97851.34;;;21.90;60.41
57442;BME280;43284;47.042;15.498;2022-07-19T07:52:41;97852.69;;;22.06;59.96
57442;BME280;43284;47.042;15.498;2022-07-19T07:55:09;97855.69;;;22.12;58.51
57442;BME280;43284;47.042;15.498;2022-07-19T07:57:37;97853.59;;;22.27;58.56
57442;BME280;43284;47.042;15.498;2022-07-19T08:00:08;97855.31;;;22.38;54.72
57442;BME280;43284;47.042;15.498;2022-07-19T08:02:45;97840.06;;;22.40;54.06
57442;BME280;43284;47.042;15.498;2022-07-19T08:05:21;97844.06;;;22.55;55.26
57442;BME280;43284;47.042;15.498;2022-07-19T08:10:15;97837.28;;;22.72;53.36
57442;BME280;43284;47.042;15.498;2022-07-19T08:12:42;97839.44;;;22.98;54.32
57442;BME280;43284;47.042;15.498;2022-07-19T08:15:10;97832.19;;;23.00;52.58
57442;BME280;43284;47.042;15.498;2022-07-19T08:17:38;97836.16;;;23.06;53.53
57442;BME280;43284;47.042;15.498;2022-07-19T08:20:12;97838.16;;;23.23;51.73
57442;BME280;43284;47.042;15.498;2022-07-19T08:22:40;97834.09;;;23.29;49.35
57442;BME280;43284;47.042;15.498;2022-07-19T08:25:09;97834.09;;;23.38;52.35
57442;BME280;43284;47.042;15.498;2022-07-19T08:27:37;97831.59;;;23.47;50.25
57442;BME280;43284;47.042;15.498;2022-07-19T08:30:04;97834.81;;;23.60;49.30
57442;BME280;43284;47.042;15.498;2022-07-19T08:32:32;97831.59;;;23.66;45.79
57442;BME280;43284;47.042;15.498;2022-07-19T08:35:05;97832.72;;;23.73;45.98
57442;BME280;43284;47.042;15.498;2022-07-19T08:37:35;97828.81;;;23.87;42.09
57442;BME280;43284;47.042;15.498;2022-07-19T08:40:17;97826.97;;;23.88;44.83
57442;BME280;43284;47.042;15.498;2022-07-19T08:42:46;97828.09;;;23.95;45.52
57442;BME280;43284;47.042;15.498;2022-07-19T08:45:15;97834.53;;;24.21;45.74
57442;BME280;43284;47.042;15.498;2022-07-19T08:47:46;97837.16;;;24.31;43.97
57442;BME280;43284;47.042;15.498;2022-07-19T08:50:15;97834.34;;;24.33;45.98
57442;BME280;43284;47.042;15.498;2022-07-19T08:52:42;97832.38;;;24.35;44.54
57442;BME280;43284;47.042;15.498;2022-07-19T08:55:10;97824.75;;;24.40;44.58
57442;BME280;43284;47.042;15.498;2022-07-19T08:57:43;97826.19;;;24.54;43.74
57442;BME280;43284;47.042;15.498;2022-07-19T09:00:34;97825.59;;;24.60;45.23
57442;BME280;43284;47.042;15.498;2022-07-19T09:03:05;97820.59;;;24.75;44.81
57442;BME280;43284;47.042;15.498;2022-07-19T09:05:38;97821.16;;;24.78;43.95
57442;BME280;43284;47.042;15.498;2022-07-19T09:08:17;97823.22;;;24.84;45.03
57442;BME280;43284;47.042;15.498;2022-07-19T09:10:50;97810.56;;;24.86;46.12
57442;BME280;43284;47.042;15.498;2022-07-19T09:13:36;97809.78;;;24.94;43.71
57442;BME280;43284;47.042;15.498;2022-07-19T09:16:04;97805.84;;;24.98;42.62
57442;BME280;43284;47.042;15.498;2022-07-19T09:18:33;97808.75;;;25.05;46.70
57442;BME280;43284;47.042;15.498;2022-07-19T09:21:13;97812.22;;;25.15;43.17
57442;BME280;43284;47.042;15.498;2022-07-19T09:23:41;97806.72;;;25.17;43.91
57442;BME280;43284;47.042;15.498;2022-07-19T09:26:11;97805.84;;;25.16;42.58
57442;BME280;43284;47.042;15.498;2022-07-19T09:28:41;97815.53;;;25.27;45.13
57442;BME280;43284;47.042;15.498;2022-07-19T09:31:09;97815.72;;;25.43;45.01
57442;BME280;43284;47.042;15.498;2022-07-19T09:33:37;97814.56;;;25.46;42.51
57442;BME280;43284;47.042;15.498;2022-07-19T09:36:29;97814.19;;;25.59;44.35
57442;BME280;43284;47.042;15.498;2022-07-19T09:38:57;97813.97;;;25.70;43.95
57442;BME280;43284;47.042;15.498;2022-07-19T09:41:26;97814.50;;;25.74;43.43
57442;BME280;43284;47.042;15.498;2022-07-19T09:44:02;97810.56;;;25.86;43.26
57442;BME280;43284;47.042;15.498;2022-07-19T09:46:42;97802.28;;;25.89;44.11
57442;BME280;43284;47.042;15.498;2022-07-19T09:49:16;97805.38;;;26.02;44.76
57442;BME280;43284;47.042;15.498;2022-07-19T09:51:51;97795.19;;;26.06;42.71
57442;BME280;43284;47.042;15.498;2022-07-19T09:54:26;97793.38;;;26.06;42.74
57442;BME280;43284;47.042;15.498;2022-07-19T09:57:02;97793.88;;;26.36;42.43
57442;BME280;43284;47.042;15.498;2022-07-19T09:59:31;97794.69;;;26.28;42.36
57442;BME280;43284;47.042;15.498;2022-07-19T10:02:00;97793.81;;;26.28;41.98
57442;BME280;43284;47.042;15.498;2022-07-19T10:04:27;97784.78;;;26.29;42.30
57442;BME280;43284;47.042;15.498;2022-07-19T10:06:55;97779.34;;;26.47;45.65
57442;BME280;43284;47.042;15.498;2022-07-19T10:09:24;97783.03;;;26.46;44.09
57442;BME280;43284;47.042;15.498;2022-07-19T10:12:03;97784.50;;;26.66;41.34
57442;BME280;43284;47.042;15.498;2022-07-19T10:14:31;97784.56;;;26.75;41.65
57442;BME280;43284;47.042;15.498;2022-07-19T10:20:02;97776.56;;;26.99;46.04
57442;BME280;43284;47.042;15.498;2022-07-19T10:22:32;97774.38;;;26.95;43.11
57442;BME280;43284;47.042;15.498;2022-07-19T10:27:45;97783.50;;;27.18;44.12
57442;BME280;43284;47.042;15.498;2022-07-19T10:32:42;97775.50;;;27.35;41.77
57442;BME280;43284;47.042;15.498;2022-07-19T10:40:57;97769.63;;;27.39;39.25
57442;BME280;43284;47.042;15.498;2022-07-19T10:43:26;97766.28;;;27.37;40.83
57442;BME280;43284;47.042;15.498;2022-07-19T10:48:40;97764.28;;;27.56;37.74
57442;BME280;43284;47.042;15.498;2022-07-19T10:51:26;97764.97;;;27.58;38.46
57442;BME280;43284;47.042;15.498;2022-07-19T10:54:00;97762.44;;;27.48;37.50
57442;BME280;43284;47.042;15.498;2022-07-19T10:59:46;97757.75;;;27.58;38.89
57442;BME280;43284;47.042;15.498;2022-07-19T11:02:29;97752.72;;;27.55;38.06
57442;BME280;43284;47.042;15.498;2022-07-19T11:05:00;97748.50;;;27.61;39.66
57442;BME280;43284;47.042;15.498;2022-07-19T11:07:28;97746.31;;;27.72;38.24
57442;BME280;43284;47.042;15.498;2022-07-19T11:10:00;97746.50;;;27.79;39.40
57442;BME280;43284;47.042;15.498;2022-07-19T11:12:32;97754.38;;;27.81;39.01
57442;BME280;43284;47.042;15.498;2022-07-19T11:15:06;97748.53;;;27.85;42.83
57442;BME280;43284;47.042;15.498;2022-07-19T11:17:36;97752.03;;;28.02;39.44
57442;BME280;43284;47.042;15.498;2022-07-19T11:20:09;97748.00;;;28.14;39.09
57442;BME280;43284;47.042;15.498;2022-07-19T11:22:45;97743.75;;;28.28;39.19
57442;BME280;43284;47.042;15.498;2022-07-19T11:25:22;97749.28;;;28.35;39.56
57442;BME280;43284;47.042;15.498;2022-07-19T11:27:50;97743.22;;;28.33;38.29
57442;BME280;43284;47.042;15.498;2022-07-19T11:30:22;97743.59;;;28.30;39.54
57442;BME280;43284;47.042;15.498;2022-07-19T11:32:58;97740.25;;;28.20;37.80
57442;BME280;43284;47.042;15.498;2022-07-19T11:35:29;97745.09;;;28.32;38.58
57442;BME280;43284;47.042;15.498;2022-07-19T11:38:03;97738.16;;;28.38;41.31
57442;BME280;43284;47.042;15.498;2022-07-19T11:40:42;97740.69;;;28.31;36.58
57442;BME280;43284;47.042;15.498;2022-07-19T11:43:12;97732.44;;;28.41;39.30
57442;BME280;43284;47.042;15.498;2022-07-19T11:45:45;97739.19;;;28.37;37.72
57442;BME280;43284;47.042;15.498;2022-07-19T11:48:27;97734.44;;;28.55;38.28
57442;BME280;43284;47.042;15.498;2022-07-19T11:51:09;97741.66;;;28.55;36.44
57442;BME280;43284;47.042;15.498;2022-07-19T11:53:39;97732.03;;;28.69;39.76
57442;BME280;43284;47.042;15.498;2022-07-19T11:56:28;97729.78;;;28.81;35.61
57442;BME280;43284;47.042;15.498;2022-07-19T11:59:00;97724.03;;;28.84;34.45
57442;BME280;43284;47.042;15.498;2022-07-19T12:01:30;97721.69;;;28.89;36.79
57442;BME280;43284;47.042;15.498;2022-07-19T12:04:03;97725.16;;;28.98;36.18
57442;BME280;43284;47.042;15.498;2022-07-19T12:06:45;97716.00;;;29.15;35.70
57442;BME280;43284;47.042;15.498;2022-07-19T12:09:26;97714.97;;;29.39;36.72
57442;BME280;43284;47.042;15.498;2022-07-19T12:11:55;97716.53;;;29.56;35.19
57442;BME280;43284;47.042;15.498;2022-07-19T12:14:27;97712.06;;;29.64;36.15
57442;BME280;43284;47.042;15.498;2022-07-19T12:17:16;97715.75;;;29.71;39.10
57442;BME280;43284;47.042;15.498;2022-07-19T12:19:51;97713.63;;;29.81;36.74
57442;BME280;43284;47.042;15.498;2022-07-19T12:22:40;97702.88;;;29.96;35.99
57442;BME280;43284;47.042;15.498;2022-07-19T12:25:14;97704.94;;;30.09;35.10
57442;BME280;43284;47.042;15.498;2022-07-19T12:27:43;97700.09;;;30.19;35.63
57442;BME280;43284;47.042;15.498;2022-07-19T12:30:20;97703.19;;;30.31;36.28
57442;BME280;43284;47.042;15.498;2022-07-19T12:32:48;97699.94;;;30.35;34.47
57442;BME280;43284;47.042;15.498;2022-07-19T12:35:16;97698.72;;;30.53;36.10
57442;BME280;43284;47.042;15.498;2022-07-19T12:37:47;97683.75;;;30.50;33.12
57442;BME280;43284;47.042;15.498;2022-07-19T12:40:24;97678.72;;;30.47;33.42
57442;BME280;43284;47.042;15.498;2022-07-19T12:42:55;97690.84;;;30.73;35.83
57442;BME280;43284;47.042;15.498;2022-07-19T12:45:44;97686.09;;;30.75;33.03
57442;BME280;43284;47.042;15.498;2022-07-19T12:48:19;97683.47;;;30.96;34.43
57442;BME280;43284;47.042;15.498;2022-07-19T12:50:51;97676.78;;;30.92;34.34
57442;BME280;43284;47.042;15.498;2022-07-19T12:53:23;97673.88;;;30.94;34.81
57442;BME280;43284;47.042;15.498;2022-07-19T12:55:51;97677.94;;;31.05;34.84
57442;BME280;43284;47.042;15.498;2022-07-19T12:58:19;97664.44;;;31.05;33.47
57442;BME280;43284;47.042;15.498;2022-07-19T13:01:07;97666.06;;;31.20;33.85
57442;BME280;43284;47.042;15.498;2022-07-19T13:03:35;97668.88;;;31.12;32.92
57442;BME280;43284;47.042;15.498;2022-07-19T13:06:07;97666.44;;;31.17;33.37
57442;BME280;43284;47.042;15.498;2022-07-19T13:08:34;97663.94;;;31.16;33.53
57442;BME280;43284;47.042;15.498;2022-07-19T13:11:03;97668.06;;;31.12;32.87
57442;BME280;43284;47.042;15.498;2022-07-19T13:13:33;97653.31;;;31.14;33.72
57442;BME280;43284;47.042;15.498;2022-07-19T13:16:03;97651.56;;;31.28;33.12
57442;BME280;43284;47.042;15.498;2022-07-19T13:18:30;97653.56;;;31.41;34.42
57442;BME280;43284;47.042;15.498;2022-07-19T13:20:58;97648.88;;;31.07;31.21
57442;BME280;43284;47.042;15.498;2022-07-19T13:23:26;97655.91;;;31.23;32.99
57442;BME280;43284;47.042;15.498;2022-07-19T13:25:54;97655.44;;;31.40;33.54